Plans Solutions Contact
YouTube
Follow 1.9K
copyright © 2022 Tweepsmap
List
Analyze by
Analysis of @nevoheiro FOLLOWERS

Analysis of @nevoheiro FOLLOWERS

The top three countries where nevoheiro's Twitter followers are from include Brazil(90%)Austria(10%). Whearas the top three states/provinces where nevoheiro's Twitter followers come from are Rio de Janeiro, Brazil(20%), Kärnten, Austria(10%) and Mato Grosso do Sul, Brazil(10%). Finally the 3 cities where nevoheiro's Twitter followers are the most from are Rio de Janeiro, Brazil(20%), Kärnten, Austria(10%) and Mato Grosso do Sul, Brazil(10%)

About @nevoheiro (Nevo Heiro):
SBCT 270900Z 36003KT 0300 R15/300 R33/300 FG VV000 09/09 Q1021.

@nevoheiro said:
Meus seguidores são de Brasil(90%),Áustria(10%),Poggersdorf(10%) tweepsmap.com/!nevoheiro
Analysis
Analysis of @nevoheiro FOLLOWERS

This report is outdated. To recreate visit
Analyze Twitter account
or
Map Your Followers, FREE!
x
No Data currently available.
Please try again later.